Time;durP1;ratioP1;P1;durP2;ratioP2;P2;SDS_P1;SDS_P2;PMS_P1;PMS_P2;Temp;Humidity;BMP_temperature;BMP_pressure;BME280_temperature;BME280_humidity;BME280_pressure;Samples;Min_cycle;Max_cycle;Signal;HPM_P1;HPM_P2
2022/11/07 00:00:12;;;;;;;1.70;1.00;;;;;;;10.15;nan;97973.16;5034722;28;20220;-70
2022/11/07 00:02:38;;;;;;;1.53;1.10;;;;;;;10.10;nan;97987.06;5035661;28;20234;-70
2022/11/07 00:05:06;;;;;;;0.90;0.90;;;;;;;10.13;nan;97983.16;5034699;28;20254;-70
2022/11/07 00:07:32;;;;;;;1.53;1.10;;;;;;;10.14;nan;97988.28;5035007;28;20217;-70
2022/11/07 00:09:58;;;;;;;1.50;0.97;;;;;;;10.16;nan;97993.38;5034828;28;20213;-70
2022/11/07 00:12:25;;;;;;;0.60;0.60;;;;;;;10.04;nan;97992.41;5034811;28;20237;-70
2022/11/07 00:14:51;;;;;;;2.30;1.47;;;;;;;10.04;nan;97982.66;5034734;28;20205;-70
2022/11/07 00:17:18;;;;;;;0.80;0.80;;;;;;;10.03;nan;98001.41;5034751;28;20587;-70
2022/11/07 00:19:44;;;;;;;1.33;1.03;;;;;;;10.00;nan;98010.63;5034425;28;20202;-70
2022/11/07 00:22:11;;;;;;;1.10;0.80;;;;;;;10.08;nan;98006.91;5034318;28;20240;-70
2022/11/07 00:24:37;;;;;;;1.00;1.00;;;;;;;10.10;nan;98008.31;5034383;28;20236;-70
2022/11/07 00:27:04;;;;;;;1.33;0.80;;;;;;;10.11;nan;98012.63;5034665;28;20205;-70
2022/11/07 00:29:30;;;;;;;1.90;1.00;;;;;;;10.06;nan;98014.31;5034645;28;20210;-70
2022/11/07 00:31:58;;;;;;;1.30;0.97;;;;;;;10.11;nan;98017.13;5034506;28;20240;-71
2022/11/07 00:34:24;;;;;;;0.80;0.80;;;;;;;10.14;nan;98016.69;5034499;28;20237;-70
2022/11/07 00:36:51;;;;;;;2.83;0.90;;;;;;;10.17;nan;98025.03;5034145;28;20206;-71
2022/11/07 00:39:17;;;;;;;1.13;0.80;;;;;;;10.10;nan;98026.13;5034166;28;20218;-70
2022/11/07 00:41:49;;;;;;;1.00;1.00;;;;;;;10.07;nan;98023.88;5034326;28;20228;-70
2022/11/07 00:44:16;;;;;;;1.00;0.90;;;;;;;10.15;nan;98026.28;5034024;28;20217;-70
2022/11/07 00:46:43;;;;;;;1.03;0.93;;;;;;;10.12;nan;98035.50;5034063;28;20293;-71
2022/11/07 00:49:10;;;;;;;0.70;0.70;;;;;;;10.23;nan;98023.38;5034286;28;20202;-70
2022/11/07 00:51:37;;;;;;;0.90;0.80;;;;;;;10.20;nan;98035.25;5033922;28;20229;-70
2022/11/07 00:54:04;;;;;;;1.60;0.80;;;;;;;10.26;nan;98038.84;5033905;28;20679;-70
2022/11/07 00:56:30;;;;;;;1.00;0.80;;;;;;;10.28;nan;98044.78;5034142;28;20201;-71
2022/11/07 00:58:58;;;;;;;0.80;0.80;;;;;;;10.27;nan;98043.16;5034171;28;20240;-71
2022/11/07 01:01:28;;;;;;;0.73;0.73;;;;;;;10.31;nan;98044.31;5034049;28;20233;-70
2022/11/07 01:06:41;;;;;;;0.80;0.80;;;;;;;10.37;nan;98038.97;5034184;28;20632;-71
2022/11/07 01:09:10;;;;;;;0.80;0.80;;;;;;;10.25;nan;98039.88;5034521;28;20247;-70
2022/11/07 01:11:37;;;;;;;0.97;0.80;;;;;;;10.17;nan;98037.50;5033877;28;20236;-71
2022/11/07 01:14:04;;;;;;;0.80;0.80;;;;;;;10.05;nan;98036.59;5033911;28;20202;-71
2022/11/07 01:16:34;;;;;;;0.70;0.70;;;;;;;10.02;nan;98037.81;5033439;28;20210;-71
2022/11/07 01:19:01;;;;;;;2.07;0.87;;;;;;;9.90;nan;98038.69;5033600;28;20237;-71
2022/11/07 01:21:28;;;;;;;1.07;0.67;;;;;;;9.84;nan;98032.41;5033605;28;20241;-71
2022/11/07 01:23:54;;;;;;;1.10;0.80;;;;;;;9.75;nan;98033.69;5033771;28;20251;-70
2022/11/07 01:26:20;;;;;;;0.80;0.80;;;;;;;9.64;nan;98039.69;5033904;28;20230;-70
2022/11/07 01:28:47;;;;;;;1.17;0.80;;;;;;;9.57;nan;98030.13;5033278;28;20640;-70
2022/11/07 01:31:15;;;;;;;0.90;0.90;;;;;;;9.57;nan;98030.94;5033369;28;20309;-70
2022/11/07 01:33:42;;;;;;;2.40;0.70;;;;;;;9.54;nan;98030.53;5033129;28;20215;-70
2022/11/07 01:36:12;;;;;;;0.87;0.87;;;;;;;9.51;nan;98037.09;5033985;28;20202;-70
2022/11/07 01:38:41;;;;;;;0.80;0.80;;;;;;;9.54;nan;98030.53;5033377;28;20210;-70
2022/11/07 01:41:24;;;;;;;1.10;0.80;;;;;;;9.55;nan;98032.19;5033318;28;20230;-71
2022/11/07 01:44:00;;;;;;;0.70;0.70;;;;;;;9.52;nan;98030.78;5033103;28;20629;-70
2022/11/07 01:46:28;;;;;;;0.77;0.77;;;;;;;9.53;nan;98031.56;5033171;28;20672;-70
2022/11/07 01:49:07;;;;;;;1.43;0.80;;;;;;;9.53;nan;98029.75;5033483;28;20212;-70
2022/11/07 01:51:43;;;;;;;1.10;1.00;;;;;;;9.53;nan;98036.88;5033420;28;20235;-70
2022/11/07 01:54:12;;;;;;;1.23;0.80;;;;;;;9.49;nan;98023.22;5033139;28;20641;-70
2022/11/07 01:56:42;;;;;;;2.93;1.20;;;;;;;9.49;nan;98030.38;5033410;28;20213;-70
2022/11/07 01:59:11;;;;;;;0.93;0.80;;;;;;;9.46;nan;98033.47;5033419;28;20221;-70
2022/11/07 02:01:37;;;;;;;0.90;0.90;;;;;;;9.55;nan;98034.84;5032929;28;20709;-70
2022/11/07 02:04:04;;;;;;;0.93;0.80;;;;;;;9.56;nan;98039.13;5033031;28;20666;-70
2022/11/07 02:07:01;;;;;;;0.97;0.90;;;;;;;9.55;nan;98040.94;5033141;28;20229;-70
2022/11/07 02:09:27;;;;;;;1.40;1.00;;;;;;;9.67;nan;98035.78;5030957;28;20224;-70
2022/11/07 02:11:59;;;;;;;0.93;0.93;;;;;;;9.67;nan;98033.13;5032890;28;20236;-70
2022/11/07 02:14:26;;;;;;;0.93;0.90;;;;;;;9.69;nan;98034.53;5033312;28;20201;-70
2022/11/07 02:16:53;;;;;;;0.90;0.90;;;;;;;9.71;nan;98036.97;5033229;28;20209;-70
2022/11/07 02:19:33;;;;;;;1.87;1.00;;;;;;;9.72;nan;98033.28;5033169;28;20206;-70
2022/11/07 02:22:09;;;;;;;1.20;0.80;;;;;;;9.69;nan;98031.88;5031664;28;20246;-71
2022/11/07 02:24:38;;;;;;;0.80;0.80;;;;;;;9.71;nan;98031.66;5033106;28;20190;-71
2022/11/07 02:27:09;;;;;;;2.20;0.80;;;;;;;9.73;nan;98042.91;5031965;28;20202;-70
2022/11/07 02:29:38;;;;;;;0.90;0.90;;;;;;;9.70;nan;98041.50;5036281;28;20190;-70
2022/11/07 02:32:08;;;;;;;1.43;1.00;;;;;;;9.75;nan;98036.34;5036794;28;20272;-70
2022/11/07 02:34:34;;;;;;;1.63;1.00;;;;;;;9.79;nan;98040.22;5036507;28;20212;-71
2022/11/07 02:37:03;;;;;;;1.73;0.90;;;;;;;9.82;nan;98045.06;5036651;28;20206;-70
2022/11/07 02:39:29;;;;;;;0.80;0.80;;;;;;;9.96;nan;98027.22;5035256;28;20210;-70
2022/11/07 02:41:59;;;;;;;1.07;0.90;;;;;;;10.10;nan;98031.44;5036260;28;20232;-71
2022/11/07 02:44:26;;;;;;;1.07;0.90;;;;;;;10.04;nan;98029.59;5036593;28;20206;-71
2022/11/07 02:46:52;;;;;;;2.30;1.00;;;;;;;10.05;nan;98033.94;5035172;28;20210;-71
2022/11/07 02:49:19;;;;;;;1.30;1.20;;;;;;;10.10;nan;98031.44;5036574;28;20213;-71
2022/11/07 02:51:45;;;;;;;1.77;1.10;;;;;;;10.15;nan;98034.25;5036464;28;20226;-70
2022/11/07 02:54:12;;;;;;;2.23;1.00;;;;;;;10.12;nan;98034.69;5036445;28;20217;-70
2022/11/07 02:56:38;;;;;;;1.07;0.97;;;;;;;10.14;nan;98032.63;5036344;28;20208;-71
2022/11/07 02:59:04;;;;;;;3.43;1.17;;;;;;;10.12;nan;98032.03;5036586;28;20211;-71
2022/11/07 03:01:31;;;;;;;0.97;0.90;;;;;;;10.17;nan;98034.84;5035956;28;20229;-71
2022/11/07 03:03:57;;;;;;;1.03;1.03;;;;;;;10.18;nan;98028.53;5036295;28;20206;-71
2022/11/07 03:06:26;;;;;;;1.30;1.00;;;;;;;10.22;nan;98033.16;5035872;28;20226;-70
2022/11/07 03:08:52;;;;;;;1.27;1.17;;;;;;;10.27;nan;98028.00;5036133;28;20210;-70
2022/11/07 03:11:19;;;;;;;1.37;0.93;;;;;;;10.29;nan;98035.78;5035988;28;20238;-71
2022/11/07 03:13:47;;;;;;;1.20;0.97;;;;;;;10.30;nan;98026.75;5036136;28;20206;-71
2022/11/07 03:16:14;;;;;;;1.67;1.20;;;;;;;10.31;nan;98028.38;5036017;28;20198;-71
2022/11/07 03:18:41;;;;;;;2.37;1.10;;;;;;;10.40;nan;98030.56;5035681;28;20683;-70
2022/11/07 03:21:07;;;;;;;0.90;0.90;;;;;;;10.43;nan;98031.97;5036171;28;20243;-71
2022/11/07 03:23:35;;;;;;;1.90;0.80;;;;;;;10.45;nan;98024.59;5035671;28;20630;-71
2022/11/07 03:26:02;;;;;;;1.37;0.90;;;;;;;10.52;nan;98025.34;5035471;28;20221;-71
2022/11/07 03:28:29;;;;;;;3.63;1.20;;;;;;;10.54;nan;98028.59;5035516;28;20670;-71
2022/11/07 03:30:55;;;;;;;2.07;1.20;;;;;;;10.57;nan;98036.94;5035749;28;20251;-71
2022/11/07 03:33:21;;;;;;;1.30;1.10;;;;;;;10.54;nan;98040.03;5035732;28;20236;-71
2022/11/07 03:35:48;;;;;;;1.73;1.13;;;;;;;10.48;nan;98040.91;5035724;28;20297;-70
2022/11/07 03:38:14;;;;;;;3.43;1.20;;;;;;;10.45;nan;98036.03;5035292;28;20569;-70
2022/11/07 03:40:41;;;;;;;2.53;1.20;;;;;;;10.48;nan;98040.09;5034929;28;20592;-71
2022/11/07 03:43:07;;;;;;;2.60;1.00;;;;;;;10.52;nan;98036.78;5035517;28;20208;-70
2022/11/07 03:45:33;;;;;;;2.53;1.10;;;;;;;10.56;nan;98039.81;5035415;28;20232;-71
2022/11/07 03:48:00;;;;;;;2.10;1.00;;;;;;;10.57;nan;98042.25;5035448;28;20218;-71
2022/11/07 03:50:26;;;;;;;1.30;1.20;;;;;;;10.61;nan;98042.63;5035356;28;20230;-71
2022/11/07 03:52:52;;;;;;;1.27;1.17;;;;;;;10.56;nan;98040.66;5035315;28;20217;-70
2022/11/07 03:55:19;;;;;;;4.40;1.17;;;;;;;10.56;nan;98039.81;5035422;28;20206;-71
2022/11/07 03:57:46;;;;;;;1.10;0.90;;;;;;;10.50;nan;98051.34;5035696;28;20205;-70
2022/11/07 04:00:14;;;;;;;1.93;0.97;;;;;;;10.50;nan;98057.44;5035135;28;20229;-71
2022/11/07 04:02:40;;;;;;;1.27;1.00;;;;;;;10.50;nan;98061.97;5034826;28;20214;-70
2022/11/07 04:05:07;;;;;;;2.30;1.20;;;;;;;10.48;nan;98062.19;5034692;28;20227;-71
2022/11/07 04:07:33;;;;;;;1.13;1.00;;;;;;;10.51;nan;98056.41;5034692;28;20689;-70
2022/11/07 04:10:00;;;;;;;0.93;0.80;;;;;;;10.47;nan;98065.88;5034869;28;20232;-70
2022/11/07 04:17:54;;;;;;;2.37;1.00;;;;;;;10.45;nan;98072.44;5034633;28;20168;-70
2022/11/07 04:20:21;;;;;;;1.30;1.03;;;;;;;10.45;nan;98072.44;5034604;28;20230;-70
2022/11/07 04:22:47;;;;;;;2.47;1.00;;;;;;;10.46;nan;98074.84;5034331;28;20310;-71
2022/11/07 04:25:13;;;;;;;1.13;1.00;;;;;;;10.44;nan;98076.09;5034188;28;20598;-70
2022/11/07 04:27:42;;;;;;;2.40;1.10;;;;;;;10.47;nan;98081.00;5034621;28;20211;-70
2022/11/07 04:30:23;;;;;;;1.07;0.87;;;;;;;10.38;nan;98077.81;5034460;28;20619;-70
2022/11/07 04:32:52;;;;;;;2.27;0.90;;;;;;;10.34;nan;98081.94;5034310;28;20756;-71
2022/11/07 04:35:20;;;;;;;2.20;1.10;;;;;;;10.34;nan;98071.31;5034137;28;20206;-71
2022/11/07 04:37:47;;;;;;;1.93;1.20;;;;;;;10.32;nan;98080.53;5034797;28;20218;-70
2022/11/07 04:40:15;;;;;;;2.23;1.20;;;;;;;10.33;nan;98082.13;5034149;28;20225;-71
2022/11/07 04:42:42;;;;;;;2.27;0.90;;;;;;;10.29;nan;98088.91;5034330;28;20210;-71
2022/11/07 04:45:10;;;;;;;1.60;1.10;;;;;;;10.36;nan;98082.50;5034214;28;20206;-70
2022/11/07 04:47:36;;;;;;;1.90;0.97;;;;;;;10.31;nan;98086.84;5034176;28;20578;-71
2022/11/07 04:50:04;;;;;;;2.07;1.20;;;;;;;10.31;nan;98087.66;5034269;28;20206;-71
2022/11/07 04:52:30;;;;;;;1.93;1.10;;;;;;;10.25;nan;98093.84;5032961;28;20211;-71
2022/11/07 04:54:57;;;;;;;1.53;1.00;;;;;;;10.21;nan;98089.16;5033681;28;20661;-70
2022/11/07 04:57:23;;;;;;;2.37;1.30;;;;;;;10.19;nan;98099.22;5034078;28;20229;-71
2022/11/07 04:59:49;;;;;;;1.90;1.00;;;;;;;10.19;nan;98093.91;5033766;28;20217;-70
2022/11/07 05:02:16;;;;;;;1.50;0.97;;;;;;;10.20;nan;98095.53;5033641;28;20201;-70
2022/11/07 05:04:42;;;;;;;2.13;1.10;;;;;;;10.18;nan;98095.72;5033947;28;20206;-71
2022/11/07 05:07:09;;;;;;;3.30;1.10;;;;;;;10.17;nan;98101.25;5033677;28;20241;-71
2022/11/07 05:09:36;;;;;;;1.23;0.80;;;;;;;10.13;nan;98098.22;5033689;28;20208;-71
2022/11/07 05:12:02;;;;;;;1.27;1.17;;;;;;;10.11;nan;98091.50;5033641;28;20232;-71
2022/11/07 05:14:29;;;;;;;1.67;1.00;;;;;;;10.05;nan;98089.72;5033395;28;20206;-70
2022/11/07 05:16:57;;;;;;;2.20;1.23;;;;;;;10.04;nan;98091.53;5033580;28;20202;-71
2022/11/07 05:19:23;;;;;;;2.63;1.30;;;;;;;9.93;nan;98096.69;5033522;28;20574;-71
2022/11/07 05:23:10;;;;;;;2.37;0.93;;;;;;;9.88;nan;98101.84;5033606;28;20248;-70
2022/11/07 05:24:35;;;;;;;0.93;0.90;;;;;;;9.92;nan;98093.22;5032892;28;20303;-71
2022/11/07 05:27:01;;;;;;;3.43;1.27;;;;;;;9.89;nan;98098.13;5033471;28;20253;-71
2022/11/07 05:29:28;;;;;;;2.17;1.20;;;;;;;9.86;nan;98093.28;5033412;28;20206;-70
2022/11/07 05:31:54;;;;;;;2.97;1.10;;;;;;;9.83;nan;98096.34;5033356;28;20232;-70
2022/11/07 05:34:20;;;;;;;1.03;1.00;;;;;;;9.75;nan;98099.25;5033689;28;20214;-71
2022/11/07 05:36:47;;;;;;;2.47;1.03;;;;;;;9.70;nan;98101.72;5032912;28;20692;-70
2022/11/07 05:39:13;;;;;;;2.17;1.20;;;;;;;9.67;nan;98099.47;5033397;28;20296;-71
2022/11/07 05:41:40;;;;;;;2.37;1.03;;;;;;;9.71;nan;98111.31;5032806;28;20235;-70
2022/11/07 05:44:06;;;;;;;1.63;1.20;;;;;;;9.67;nan;98110.09;5033551;28;20213;-71
2022/11/07 05:46:32;;;;;;;1.83;0.97;;;;;;;9.70;nan;98110.50;5032962;28;20257;-70
2022/11/07 05:48:59;;;;;;;2.57;1.37;;;;;;;9.65;nan;98104.19;5033120;28;20205;-71
2022/11/07 05:51:25;;;;;;;1.90;1.00;;;;;;;9.61;nan;98103.81;5033286;28;20222;-71
2022/11/07 05:53:51;;;;;;;2.60;1.20;;;;;;;9.62;nan;98102.78;5033185;28;20288;-70
2022/11/07 05:56:18;;;;;;;3.33;1.30;;;;;;;9.65;nan;98098.91;5032463;28;20209;-71
2022/11/07 05:58:44;;;;;;;2.17;1.23;;;;;;;9.63;nan;98106.25;5033029;28;20210;-71
2022/11/07 06:01:10;;;;;;;2.63;1.30;;;;;;;9.59;nan;98111.16;5032590;28;20237;-71
2022/11/07 06:03:37;;;;;;;1.77;1.20;;;;;;;9.61;nan;98111.78;5034237;28;20229;-70
2022/11/07 06:06:04;;;;;;;2.50;1.23;;;;;;;9.64;nan;98113.19;5036782;28;20230;-70
2022/11/07 06:08:30;;;;;;;3.07;1.33;;;;;;;9.62;nan;98109.91;5036529;28;20673;-71
2022/11/07 06:10:56;;;;;;;2.10;1.30;;;;;;;9.69;nan;98113.38;5036530;28;20541;-70
2022/11/07 06:13:23;;;;;;;1.63;1.10;;;;;;;9.74;nan;98111.69;5036229;28;20231;-70
2022/11/07 06:15:49;;;;;;;2.33;1.10;;;;;;;9.79;nan;98109.25;5036682;28;20202;-70
2022/11/07 06:18:20;;;;;;;4.00;1.20;;;;;;;9.90;nan;98105.91;5036321;28;20572;-70
2022/11/07 06:20:47;;;;;;;1.47;1.10;;;;;;;10.05;nan;98100.34;5035857;28;20688;-70
2022/11/07 06:23:14;;;;;;;2.33;1.20;;;;;;;10.20;nan;98104.31;5036159;28;20245;-70
2022/11/07 06:25:41;;;;;;;2.07;1.20;;;;;;;10.23;nan;98106.53;5036411;28;20237;-70
2022/11/07 06:28:10;;;;;;;1.97;0.90;;;;;;;10.47;nan;98110.25;5036297;28;20305;-70
2022/11/07 06:30:37;;;;;;;2.13;1.33;;;;;;;10.49;nan;98105.50;5035909;28;20712;-70
2022/11/07 06:33:06;;;;;;;1.33;1.10;;;;;;;10.70;nan;98108.63;5036165;28;20298;-70
2022/11/07 06:35:33;;;;;;;2.13;1.10;;;;;;;10.71;nan;98115.56;5035734;28;20201;-70
2022/11/07 06:38:04;;;;;;;2.10;1.30;;;;;;;10.71;nan;98109.41;5036000;28;20212;-70
2022/11/07 06:40:31;;;;;;;2.77;1.07;;;;;;;10.78;nan;98115.50;5036019;28;20236;-70
2022/11/07 06:43:09;;;;;;;2.30;1.10;;;;;;;10.79;nan;98114.47;5035760;28;20216;-70
2022/11/07 06:45:35;;;;;;;3.17;1.30;;;;;;;10.85;nan;98121.56;5036203;28;20566;-70
2022/11/07 06:48:02;;;;;;;2.63;1.10;;;;;;;11.01;nan;98118.34;5035698;28;20206;-70
2022/11/07 06:50:28;;;;;;;2.17;1.20;;;;;;;11.00;nan;98119.38;5035688;28;20234;-70
2022/11/07 06:52:54;;;;;;;3.17;1.37;;;;;;;11.04;nan;98120.56;5035876;28;20216;-70
2022/11/07 06:55:21;;;;;;;3.90;1.50;;;;;;;11.05;nan;98127.50;5035841;28;20221;-70
2022/11/07 06:57:48;;;;;;;3.67;1.37;;;;;;;11.01;nan;98128.97;5035813;28;20236;-70
2022/11/07 07:00:15;;;;;;;3.57;1.40;;;;;;;10.99;nan;98131.03;5035391;28;20236;-70
2022/11/07 07:02:42;;;;;;;4.30;1.20;;;;;;;10.96;nan;98134.16;5035777;28;20210;-70
2022/11/07 07:05:08;;;;;;;4.17;1.20;;;;;;;10.96;nan;98139.47;5035007;28;20210;-70
2022/11/07 07:07:35;;;;;;;4.17;1.47;;;;;;;11.03;nan;98137.53;5035142;28;20236;-70
2022/11/07 07:10:01;;;;;;;3.80;1.30;;;;;;;10.95;nan;98146.63;5034550;28;20224;-70
2022/11/07 07:12:27;;;;;;;3.67;1.30;;;;;;;11.00;nan;98145.97;5034831;28;20298;-70
2022/11/07 07:14:54;;;;;;;4.60;2.00;;;;;;;10.97;nan;98149.06;5034141;28;20233;-70
2022/11/07 07:17:20;;;;;;;2.90;1.17;;;;;;;11.04;nan;98155.16;5035280;28;20209;-70
2022/11/07 07:19:46;;;;;;;3.93;1.33;;;;;;;11.07;nan;98151.25;5034974;28;20206;-70
2022/11/07 07:22:13;;;;;;;4.83;1.53;;;;;;;11.12;nan;98164.69;5034905;28;20240;-70
2022/11/07 07:24:40;;;;;;;5.60;1.73;;;;;;;11.13;nan;98161.81;5035137;28;20217;-69
2022/11/07 07:27:06;;;;;;;4.53;1.40;;;;;;;11.17;nan;98160.31;5035500;28;20226;-70
2022/11/07 07:29:33;;;;;;;3.97;1.30;;;;;;;11.31;nan;98163.69;5035135;28;20671;-70
2022/11/07 07:31:59;;;;;;;3.27;1.30;;;;;;;11.33;nan;98173.06;5035146;28;20228;-70
2022/11/07 07:34:26;;;;;;;2.87;1.20;;;;;;;11.44;nan;98167.00;5035230;28;20212;-71
2022/11/07 07:36:53;;;;;;;4.27;1.40;;;;;;;11.36;nan;98164.66;5034582;28;20203;-71
2022/11/07 07:39:20;;;;;;;3.37;1.40;;;;;;;11.42;nan;98169.09;5035031;28;20209;-71
2022/11/07 07:41:48;;;;;;;4.23;1.30;;;;;;;11.45;nan;98165.16;5034605;28;20226;-71
2022/11/07 07:44:15;;;;;;;4.03;1.27;;;;;;;11.51;nan;98166.94;5034846;28;20210;-71
2022/11/07 07:46:41;;;;;;;2.70;1.20;;;;;;;11.46;nan;98167.59;5034622;28;20238;-71
2022/11/07 07:49:08;;;;;;;6.63;1.40;;;;;;;11.56;nan;98167.06;5034786;28;20213;-71
2022/11/07 07:51:35;;;;;;;3.10;1.50;;;;;;;11.55;nan;98174.25;5034747;28;20313;-71
2022/11/07 07:54:01;;;;;;;4.10;1.40;;;;;;;11.69;nan;98166.97;5034739;28;20211;-71
2022/11/07 07:56:28;;;;;;;3.23;1.40;;;;;;;11.73;nan;98168.97;5034712;28;20203;-71
2022/11/07 07:58:54;;;;;;;7.97;1.57;;;;;;;11.79;nan;98167.25;5034693;28;20208;-71
2022/11/07 08:01:21;;;;;;;2.57;1.30;;;;;;;11.83;nan;98163.09;5034415;28;20891;-71
2022/11/07 08:03:48;;;;;;;5.07;1.53;;;;;;;11.90;nan;98164.66;5034348;28;20663;-71
2022/11/07 08:06:15;;;;;;;5.93;1.70;;;;;;;12.04;nan;98163.44;5034097;28;20415;-71
2022/11/07 08:08:41;;;;;;;6.87;1.40;;;;;;;12.01;nan;98163.91;5034249;28;20217;-70
2022/11/07 08:11:08;;;;;;;3.50;1.30;;;;;;;12.07;nan;98159.53;5034261;28;20283;-70
2022/11/07 08:13:35;;;;;;;3.17;1.53;;;;;;;12.09;nan;98168.91;5034174;28;20209;-71
2022/11/07 08:16:06;;;;;;;3.73;1.37;;;;;;;12.10;nan;98164.38;5034485;28;20216;-71
2022/11/07 08:18:35;;;;;;;4.37;1.30;;;;;;;12.19;nan;98171.03;5034562;28;20248;-70
2022/11/07 08:21:01;;;;;;;2.83;1.30;;;;;;;12.15;nan;98173.34;5033962;28;20237;-71
2022/11/07 08:23:29;;;;;;;4.10;1.33;;;;;;;12.17;nan;98173.91;5033943;28;20192;-70
2022/11/07 08:25:58;;;;;;;3.93;1.50;;;;;;;12.24;nan;98177.31;5033697;28;20214;-70
2022/11/07 08:28:27;;;;;;;4.37;1.57;;;;;;;12.20;nan;98181.47;5034200;28;20210;-70
2022/11/07 08:31:13;;;;;;;3.23;1.27;;;;;;;12.13;nan;98172.75;5033937;28;20233;-70
2022/11/07 08:33:39;;;;;;;3.93;1.90;;;;;;;12.15;nan;98175.16;5034092;28;20640;-71
2022/11/07 08:36:07;;;;;;;4.73;1.80;;;;;;;12.11;nan;98168.69;5034146;28;20216;-70
2022/11/07 08:38:34;;;;;;;2.70;1.30;;;;;;;12.18;nan;98183.56;5034131;28;20209;-70
2022/11/07 08:41:01;;;;;;;3.90;1.40;;;;;;;12.13;nan;98180.75;5034019;28;20235;-70
2022/11/07 08:43:27;;;;;;;6.50;1.50;;;;;;;12.19;nan;98173.69;5033817;28;20213;-70
2022/11/07 08:45:55;;;;;;;3.23;1.40;;;;;;;12.19;nan;98179.84;5033715;28;20687;-70
2022/11/07 08:48:22;;;;;;;4.77;1.40;;;;;;;12.27;nan;98182.19;5033285;28;20680;-70
2022/11/07 08:50:57;;;;;;;4.57;1.60;;;;;;;12.35;nan;98171.19;5033600;28;20233;-71
2022/11/07 08:53:25;;;;;;;4.50;1.53;;;;;;;12.37;nan;98182.47;5033688;28;20212;-70
2022/11/07 08:55:51;;;;;;;5.07;1.50;;;;;;;12.43;nan;98180.75;5033615;28;20210;-71
2022/11/07 08:58:18;;;;;;;3.33;1.40;;;;;;;12.48;nan;98176.34;5033759;28;20205;-70
2022/11/07 09:00:45;;;;;;;2.97;1.40;;;;;;;12.52;nan;98179.38;5033882;28;20232;-71
2022/11/07 09:03:12;;;;;;;2.50;1.30;;;;;;;12.57;nan;98176.84;5033733;28;20271;-70
2022/11/07 09:05:39;;;;;;;5.00;1.53;;;;;;;12.59;nan;98178.25;5033533;28;20300;-70
2022/11/07 09:08:06;;;;;;;4.60;1.23;;;;;;;12.57;nan;98179.50;5033506;28;20251;-71
2022/11/07 09:10:32;;;;;;;5.83;1.60;;;;;;;12.64;nan;98183.69;5033204;28;20248;-71
2022/11/07 09:12:59;;;;;;;5.13;1.50;;;;;;;12.65;nan;98187.16;5033697;28;20206;-70
2022/11/07 09:15:25;;;;;;;4.70;1.40;;;;;;;12.67;nan;98183.25;5033555;28;20210;-70
2022/11/07 09:17:51;;;;;;;5.40;1.50;;;;;;;12.72;nan;98186.03;5033516;28;20268;-70
2022/11/07 09:20:18;;;;;;;3.33;1.27;;;;;;;12.78;nan;98195.78;5033415;28;20230;-70
2022/11/07 09:22:45;;;;;;;5.97;1.80;;;;;;;12.81;nan;98189.19;5033270;28;20748;-70
2022/11/07 09:25:11;;;;;;;5.27;1.73;;;;;;;12.84;nan;98192.19;5033334;28;20210;-70
2022/11/07 09:27:38;;;;;;;5.53;1.40;;;;;;;12.89;nan;98197.66;5033090;28;20225;-70
2022/11/07 09:30:05;;;;;;;4.53;1.53;;;;;;;12.92;nan;98197.19;5032751;28;20569;-70
2022/11/07 09:32:32;;;;;;;4.67;1.60;;;;;;;12.91;nan;98198.25;5032924;28;20554;-70
2022/11/07 09:34:58;;;;;;;4.63;1.70;;;;;;;12.93;nan;98198.03;5032860;28;20687;-70
2022/11/07 09:37:24;;;;;;;3.87;1.40;;;;;;;13.07;nan;98210.94;5032984;28;20389;-71
2022/11/07 09:39:51;;;;;;;3.17;1.60;;;;;;;12.97;nan;98210.69;5032920;28;20205;-71
2022/11/07 09:42:32;;;;;;;6.40;1.40;;;;;;;13.04;nan;98211.41;5033198;28;20208;-70
2022/11/07 09:45:00;;;;;;;4.97;1.63;;;;;;;13.07;nan;98218.94;5032766;28;20190;-70
2022/11/07 09:47:36;;;;;;;2.40;1.10;;;;;;;13.06;nan;98214.66;5032592;28;20324;-70
2022/11/07 09:50:17;;;;;;;5.00;1.30;;;;;;;13.02;nan;98216.16;5033019;28;20209;-71
2022/11/07 09:52:53;;;;;;;2.80;1.10;;;;;;;13.07;nan;98210.94;5033145;28;20196;-70
2022/11/07 09:55:28;;;;;;;5.80;1.27;;;;;;;13.21;nan;98207.00;5033237;28;20190;-70
2022/11/07 09:58:00;;;;;;;4.17;1.60;;;;;;;13.12;nan;98215.59;5033041;28;20193;-70
2022/11/07 10:00:30;;;;;;;5.30;1.40;;;;;;;13.15;nan;98205.25;5032941;28;20221;-71
2022/11/07 10:02:58;;;;;;;4.70;1.40;;;;;;;13.17;nan;98207.69;5033055;28;20202;-71
2022/11/07 10:05:38;;;;;;;3.33;1.40;;;;;;;13.21;nan;98206.19;5032938;28;20232;-70
2022/11/07 10:08:14;;;;;;;4.53;1.33;;;;;;;13.27;nan;98200.75;5032505;28;20206;-71
2022/11/07 10:10:49;;;;;;;2.53;1.23;;;;;;;13.28;nan;98207.69;5031806;28;20226;-70
2022/11/07 10:13:18;;;;;;;5.50;1.50;;;;;;;13.32;nan;98208.03;5032878;28;20200;-71
2022/11/07 10:16:12;;;;;;;2.47;1.40;;;;;;;13.31;nan;98212.59;5032622;28;20210;-70
2022/11/07 10:18:58;;;;;;;5.10;1.63;;;;;;;13.41;nan;98207.47;5032433;28;20206;-70
2022/11/07 10:21:47;;;;;;;4.57;1.43;;;;;;;13.42;nan;98208.25;5032801;28;20229;-70
2022/11/07 10:24:51;;;;;;;4.23;1.50;;;;;;;13.49;nan;98209.78;5032572;28;20193;-70
2022/11/07 10:27:21;;;;;;;4.03;1.93;;;;;;;13.56;nan;98205.13;5032802;28;20213;-70
2022/11/07 10:29:52;;;;;;;6.33;1.60;;;;;;;13.77;nan;98209.06;5032662;28;20213;-70
2022/11/07 10:32:35;;;;;;;7.10;1.83;;;;;;;13.84;nan;98205.19;5032797;28;20240;-70
2022/11/07 10:35:16;;;;;;;4.00;1.40;;;;;;;13.87;nan;98202.06;5033288;28;20658;-70
2022/11/07 10:37:42;;;;;;;9.07;1.60;;;;;;;13.93;nan;98198.44;5032652;28;20285;-70
2022/11/07 10:40:16;;;;;;;2.60;1.47;;;;;;;14.09;nan;98196.88;5032568;28;20206;-70
2022/11/07 10:42:45;;;;;;;3.93;1.40;;;;;;;14.12;nan;98194.56;5032602;28;20211;-70
2022/11/07 10:45:14;;;;;;;4.63;1.50;;;;;;;13.95;nan;98192.84;5032578;28;20220;-71
2022/11/07 10:47:41;;;;;;;2.57;1.40;;;;;;;13.97;nan;98185.44;5032658;28;20224;-70
2022/11/07 10:50:22;;;;;;;4.10;1.57;;;;;;;14.15;nan;98182.59;5034677;28;20214;-70
2022/11/07 10:53:00;;;;;;;3.57;1.37;;;;;;;13.96;nan;98178.44;5036187;28;20205;-70
2022/11/07 10:55:28;;;;;;;5.23;1.43;;;;;;;14.00;nan;98175.06;5035927;28;20198;-71
2022/11/07 10:57:59;;;;;;;5.00;1.80;;;;;;;13.94;nan;98172.53;5036054;28;20229;-70
2022/11/07 11:00:36;;;;;;;3.37;1.37;;;;;;;13.79;nan;98164.22;5036092;28;20234;-70
2022/11/07 11:03:03;;;;;;;3.80;1.50;;;;;;;13.85;nan;98165.94;5036579;28;20200;-70
2022/11/07 11:05:45;;;;;;;2.77;1.40;;;;;;;13.83;nan;98166.16;5035873;28;20206;-70
2022/11/07 11:08:16;;;;;;;4.23;1.63;;;;;;;13.90;nan;98174.06;5035940;28;20218;-71
2022/11/07 11:10:42;;;;;;;4.83;1.43;;;;;;;14.08;nan;98166.69;5035761;28;20259;-70
2022/11/07 11:13:29;;;;;;;5.93;1.80;;;;;;;14.05;nan;98166.31;5035588;28;20209;-70
2022/11/07 11:15:58;;;;;;;2.63;1.60;;;;;;;14.04;nan;98162.03;5035657;28;20194;-71
2022/11/07 11:18:24;;;;;;;4.30;1.50;;;;;;;14.23;nan;98161.66;5035617;28;20256;-70
2022/11/07 11:21:00;;;;;;;4.60;1.77;;;;;;;14.28;nan;98172.44;5035351;28;20225;-70
2022/11/07 11:23:29;;;;;;;6.40;1.70;;;;;;;14.52;nan;98173.13;5035889;28;20240;-70
2022/11/07 11:26:06;;;;;;;2.70;1.57;;;;;;;14.66;nan;98182.47;5035116;28;20664;-71
2022/11/07 11:28:39;;;;;;;6.10;1.80;;;;;;;14.76;nan;98191.50;5035111;28;20221;-70
2022/11/07 11:31:18;;;;;;;2.93;1.33;;;;;;;14.87;nan;98177.22;5035438;28;20230;-71
2022/11/07 11:33:54;;;;;;;2.97;1.50;;;;;;;14.87;nan;98181.75;5035360;28;20283;-70
2022/11/07 11:36:33;;;;;;;6.93;1.80;;;;;;;14.82;nan;98168.28;5035085;28;20186;-70
2022/11/07 11:39:02;;;;;;;3.37;1.47;;;;;;;14.77;nan;98179.72;5035293;28;20194;-70
2022/11/07 11:41:34;;;;;;;2.23;1.40;;;;;;;14.69;nan;98174.78;5035462;28;20701;-71
2022/11/07 11:44:19;;;;;;;2.10;1.30;;;;;;;14.65;nan;98168.28;5035250;28;20594;-70
2022/11/07 11:46:52;;;;;;;2.70;1.10;;;;;;;14.66;nan;98167.22;5034961;28;20190;-71
2022/11/07 11:49:28;;;;;;;2.77;1.30;;;;;;;14.59;nan;98171.94;5034981;28;20202;-71
2022/11/07 11:52:01;;;;;;;5.20;1.50;;;;;;;14.64;nan;98182.72;5034624;28;20599;-70
2022/11/07 11:54:27;;;;;;;4.97;0.90;;;;;;;14.66;nan;98175.25;5034634;28;20201;-71
2022/11/07 11:57:01;;;;;;;3.10;1.10;;;;;;;14.61;nan;98177.84;5034759;28;20208;-71
2022/11/07 11:59:36;;;;;;;2.50;1.17;;;;;;;14.53;nan;98172.06;5034696;28;20285;-70
2022/11/07 12:02:47;;;;;;;5.00;1.37;;;;;;;14.56;nan;98174.28;5034599;28;20233;-70
2022/11/07 12:05:26;;;;;;;6.07;1.30;;;;;;;14.64;nan;98171.19;5011162;28;20206;-70
2022/11/07 12:08:11;;;;;;;3.90;1.00;;;;;;;14.62;nan;98168.78;5034342;28;20236;-70